Terminal Aerodrome Forecast
Issued by NWS Sioux Falls, SD

Home | Current Version | Previous Version | Graphics & Text | Print | Product List | Glossary Off
Versions: 1 2 3 4 5 6 7 8 9 10 11 12 13

000
FTUS43 KFSD 061120
TAFHON
TAF
KHON 061120Z 0612/0712 29024G33KT P6SM BKN040
      TEMPO 0614/0617 -SN BKN015
     FM070600 30017G25KT P6SM BKN050=

USA.gov is the U.S. government's official web portal to all federal, state and local government web resources and services.